Ana Sayfa
METAR-TAF:

METAR-TAF

Havaalanları :

Walnut Ridge, Arkansas, Amerika Birleşik Devletleri

Enlem: 36-08N, Boylam: 090-55W, yükseklik: 83 m

Güncel hava durumu gözlemi

Rapor saat 11:56 UTC de 53 dakika önce yapıldı.
Rüzgar güneydan 11 kt
Sıcaklık 21°C
Nem 100%
Basınç 1012 hPa
Görüş mesafesi: 9.7 km
gök gürültülü fırtına, hafif yağmur, Pus

METAR: KARG 231156Z AUTO 17011KT 6SM -TSRA BR 21/21 A2989 RMK AO2 LTG DSNT S TSB40RAB50 SLP121 6//// 7//// T02110211 10211 20194 53005 $

Saat: 07:49 (12:49 UTC)


TAF: eksik

4.000'den fazla havaalanı için hava durumu gözlemleri ve tahminleri (METAR ve TAF raporları).

Kullanılabilir istasyonlar harita üzerinde sarı ve kırmızı noktalarla gösterilir.

İstasyonun adını görmek için fareyi noktanın üzerinde gezdirin.

Sonrasında hava gözlem ve tahminlerini görmek için tıklayın.

Haritayı değiştirmek için: yaklaştırmak için siyah artı işaretli yeşil düğmeye ve uzaklaştırmak için de eksi işaretli düğmeye hızla tıklayın; bitişik haritalar için yeşil okları kullanın.


METAR-TAF: